createdAt,value
2023-01-12T00:00:08.103Z,4.95
2023-01-12T00:05:15.296Z,5.18
2023-01-12T00:10:17.755Z,4.55
2023-01-12T00:15:42.228Z,4.50
2023-01-12T00:20:48.864Z,4.25
2023-01-12T00:25:52.512Z,4.68
2023-01-12T00:31:01.475Z,5.00
2023-01-12T00:36:04.750Z,5.00
2023-01-12T00:41:07.523Z,5.22
2023-01-12T00:46:11.052Z,5.10
2023-01-12T00:51:13.208Z,5.10
2023-01-12T00:56:15.406Z,5.05
2023-01-12T01:01:19.098Z,5.35
2023-01-12T01:06:21.339Z,5.78
2023-01-12T01:11:23.595Z,5.20
2023-01-12T01:16:27.271Z,5.47
2023-01-12T01:21:29.435Z,6.15
2023-01-12T01:26:31.969Z,6.65
2023-01-12T01:31:35.831Z,6.60
2023-01-12T01:36:37.967Z,6.85
2023-01-12T01:41:42.733Z,6.65
2023-01-12T01:46:51.539Z,6.57
2023-01-12T01:51:56.547Z,5.82
2023-01-12T01:56:59.156Z,5.70
2023-01-12T02:02:03.427Z,5.57
2023-01-12T02:07:08.160Z,5.53
2023-01-12T02:12:27.833Z,5.32
2023-01-12T02:17:54.880Z,4.93
2023-01-12T02:23:42.480Z,4.57
2023-01-12T02:29:08.449Z,4.82
2023-01-12T02:34:25.555Z,4.57
2023-01-12T02:39:34.492Z,4.28
2023-01-12T02:44:43.977Z,4.60
2023-01-12T02:49:53.595Z,4.00
2023-01-12T02:54:58.467Z,4.25
2023-01-12T03:00:02.469Z,4.07
2023-01-12T03:05:06.491Z,4.65
2023-01-12T03:10:20.091Z,4.60
2023-01-12T03:15:24.385Z,4.25
2023-01-12T03:20:31.126Z,3.92
2023-01-12T03:25:35.364Z,4.03
2023-01-12T03:30:40.497Z,4.00
2023-01-12T03:35:53.752Z,3.78
2023-01-12T03:41:03.836Z,3.35
2023-01-12T03:46:12.669Z,4.10
2023-01-12T03:51:21.286Z,3.63
2023-01-12T03:56:26.920Z,3.50
2023-01-12T04:01:29.275Z,3.90
2023-01-12T04:06:32.990Z,3.78
2023-01-12T04:11:52.695Z,3.95
2023-01-12T04:16:55.003Z,3.67
2023-01-12T04:22:16.013Z,3.90
2023-01-12T04:27:18.666Z,3.58
2023-01-12T04:32:20.831Z,3.10
2023-01-12T04:37:24.365Z,3.08
2023-01-12T04:42:40.358Z,3.33
2023-01-12T04:47:42.531Z,2.90
2023-01-12T04:52:46.406Z,2.88
2023-01-12T04:57:48.529Z,2.65
2023-01-12T05:02:58.180Z,2.72
2023-01-12T05:08:20.051Z,2.55
2023-01-12T05:13:23.680Z,2.65
2023-01-12T05:18:25.815Z,2.30
2023-01-12T05:23:29.415Z,2.17
2023-01-12T05:28:32.025Z,2.20
2023-01-12T05:33:34.696Z,2.13
2023-01-12T05:38:38.214Z,2.30
2023-01-12T05:43:52.867Z,2.40
2023-01-12T05:48:56.358Z,2.30
2023-01-12T05:54:00.067Z,2.58
2023-01-12T05:59:04.606Z,2.35
2023-01-12T06:04:09.719Z,2.20
2023-01-12T06:09:13.536Z,2.55
2023-01-12T06:14:16.836Z,2.00
2023-01-12T06:19:19.340Z,2.03
2023-01-12T06:24:25.605Z,2.00
2023-01-12T06:29:27.769Z,1.90
2023-01-12T06:34:34.932Z,2.03
2023-01-12T06:39:38.452Z,2.25
2023-01-12T06:44:40.607Z,2.58
2023-01-12T06:49:42.715Z,2.30
2023-01-12T06:54:46.316Z,2.38
2023-01-12T06:59:48.505Z,2.53
2023-01-12T07:04:50.609Z,2.53
2023-01-12T07:09:54.110Z,2.65
2023-01-12T07:14:58.980Z,2.42
2023-01-12T07:20:01.148Z,2.85
2023-01-12T07:25:04.741Z,3.00
2023-01-12T07:30:08.107Z,2.80
2023-01-12T07:35:10.534Z,2.35
2023-01-12T07:40:14.911Z,1.52
2023-01-12T07:45:17.452Z,1.33
2023-01-12T07:50:19.933Z,1.38
2023-01-12T07:55:23.932Z,1.20
2023-01-12T08:00:27.345Z,1.00
2023-01-12T08:05:29.715Z,0.93
2023-01-12T08:10:34.293Z,1.20
2023-01-12T08:15:40.747Z,1.27
2023-01-12T08:20:43.738Z,1.20
2023-01-12T08:25:56.422Z,1.10
2023-01-12T08:30:58.866Z,1.27
2023-01-12T08:36:01.149Z,1.30
2023-01-12T08:41:22.261Z,1.10
2023-01-12T08:46:24.463Z,1.50
2023-01-12T08:51:26.849Z,1.35
2023-01-12T08:56:30.393Z,1.10
2023-01-12T09:01:33.360Z,1.55
2023-01-12T09:06:38.308Z,1.00
2023-01-12T09:11:43.239Z,1.20
2023-01-12T09:16:45.782Z,1.48
2023-01-12T09:21:47.994Z,1.30
2023-01-12T09:26:51.539Z,1.48
2023-01-12T09:31:55.628Z,1.20
2023-01-12T09:36:59.690Z,1.60
2023-01-12T09:42:23.759Z,1.20
2023-01-12T09:47:31.901Z,1.55
2023-01-12T09:52:38.364Z,1.15
2023-01-12T09:58:19.272Z,1.40
2023-01-12T10:03:29.385Z,1.20
2023-01-12T10:08:35.863Z,1.20
2023-01-12T10:14:09.502Z,1.17
2023-01-12T10:19:23.620Z,1.20
2023-01-12T10:24:26.941Z,1.27
2023-01-12T10:29:31.080Z,1.30
2023-01-12T10:34:52.841Z,1.25
2023-01-12T10:39:56.010Z,1.20
2023-01-12T10:45:13.288Z,1.15
2023-01-12T10:50:27.578Z,1.55
2023-01-12T10:55:33.397Z,1.20
2023-01-12T11:00:38.786Z,1.30
2023-01-12T11:05:42.917Z,1.02
2023-01-12T11:10:45.134Z,1.13
2023-01-12T11:16:07.532Z,1.33
2023-01-12T11:21:14.321Z,1.15
2023-01-12T11:26:20.627Z,1.30
2023-01-12T11:31:27.454Z,1.50
2023-01-12T11:36:35.612Z,1.23
2023-01-12T11:42:04.508Z,1.25
2023-01-12T11:47:08.794Z,1.17
2023-01-12T11:52:14.435Z,1.13
2023-01-12T11:57:31.905Z,1.65
2023-01-12T12:02:38.647Z,1.17
2023-01-12T12:07:53.217Z,1.10
2023-01-12T12:13:34.161Z,1.10
2023-01-12T12:18:49.552Z,1.08
2023-01-12T12:24:00.527Z,1.10
2023-01-12T12:29:18.558Z,1.23
2023-01-12T12:34:43.648Z,1.50
2023-01-12T12:39:57.280Z,1.25
2023-01-12T12:45:20.615Z,1.20
2023-01-12T12:50:26.394Z,1.40
2023-01-12T12:55:30.643Z,1.38
2023-01-12T13:00:40.587Z,1.13
2023-01-12T13:05:48.018Z,1.38
2023-01-12T13:10:53.706Z,1.40
2023-01-12T13:16:41.759Z,1.30
2023-01-12T13:21:56.547Z,1.08
2023-01-12T13:27:01.877Z,1.00
2023-01-12T13:32:37.458Z,1.30
2023-01-12T13:37:48.893Z,1.10
2023-01-12T13:43:14.093Z,1.30
2023-01-12T13:48:19.331Z,0.95
2023-01-12T13:53:26.978Z,1.08
2023-01-12T13:58:41.015Z,1.20
2023-01-12T14:04:06.577Z,1.10
2023-01-12T14:09:20.945Z,1.40
2023-01-12T14:15:03.295Z,1.30
2023-01-12T14:20:15.544Z,1.02
2023-01-12T14:25:20.640Z,1.00
2023-01-12T14:30:26.973Z,1.67
2023-01-12T14:35:29.147Z,1.10
2023-01-12T14:40:33.514Z,1.20
2023-01-12T14:45:55.538Z,1.23
2023-01-12T14:51:17.036Z,1.50
2023-01-12T14:56:23.224Z,1.10
2023-01-12T15:01:34.538Z,0.98
2023-01-12T15:06:43.415Z,0.90
2023-01-12T15:11:45.578Z,0.90
2023-01-12T15:17:09.728Z,0.90
2023-01-12T15:22:29.352Z,0.90
2023-01-12T15:27:32.217Z,1.10
2023-01-12T15:32:46.698Z,0.93
2023-01-12T15:37:49.729Z,1.38
2023-01-12T15:42:53.512Z,1.30
2023-01-12T15:47:57.368Z,1.63
2023-01-12T15:53:01.484Z,2.75
2023-01-12T15:58:03.786Z,2.50
2023-01-12T16:03:07.483Z,1.40
2023-01-12T16:08:12.479Z,1.60
2023-01-12T16:13:14.658Z,1.80
2023-01-12T16:18:18.224Z,2.10
2023-01-12T16:23:20.440Z,2.30
2023-01-12T16:28:22.638Z,4.07
2023-01-12T16:33:26.332Z,3.05
2023-01-12T16:38:28.832Z,2.78
2023-01-12T16:43:31.319Z,4.70
2023-01-12T16:48:35.755Z,3.83
2023-01-12T16:53:37.917Z,3.83
2023-01-12T16:58:41.922Z,4.47
2023-01-12T17:03:46.346Z,4.25
2023-01-12T17:08:49.711Z,4.40
2023-01-12T17:13:53.288Z,4.90
2023-01-12T17:18:56.941Z,4.85
2023-01-12T17:23:59.265Z,4.70
2023-01-12T17:29:01.705Z,4.10
2023-01-12T17:34:05.449Z,3.72
2023-01-12T17:39:08.015Z,4.38
2023-01-12T17:44:10.817Z,5.50
2023-01-12T17:49:14.640Z,4.82
2023-01-12T17:54:17.188Z,3.20
2023-01-12T17:59:22.947Z,4.30
2023-01-12T18:04:26.557Z,4.15
2023-01-12T18:09:29.175Z,4.18
2023-01-12T18:14:31.462Z,3.70
2023-01-12T18:19:35.371Z,2.70
2023-01-12T18:24:38.145Z,2.60
2023-01-12T18:29:41.781Z,2.00
2023-01-12T18:34:46.445Z,1.45
2023-01-12T18:39:51.123Z,1.17
2023-01-12T18:44:53.269Z,1.27
2023-01-12T18:49:57.758Z,1.30
2023-01-12T18:55:00.610Z,1.35
2023-01-12T19:00:14.894Z,1.83
2023-01-12T19:05:23.487Z,2.50
2023-01-12T19:10:26.786Z,1.63
2023-01-12T19:15:57.930Z,2.22
2023-01-12T19:21:18.571Z,2.70
2023-01-12T19:26:38.128Z,1.98
2023-01-12T19:31:41.148Z,2.10
2023-01-12T19:36:45.846Z,2.28
2023-01-12T19:42:05.611Z,2.20
2023-01-12T19:47:08.181Z,2.58
2023-01-12T19:52:12.543Z,2.83
2023-01-12T19:57:16.065Z,2.30
2023-01-12T20:02:19.630Z,2.20
2023-01-12T20:07:23.378Z,2.00
2023-01-12T20:12:25.943Z,2.28
2023-01-12T20:17:28.720Z,1.80
2023-01-12T20:22:32.419Z,2.25
2023-01-12T20:27:36.499Z,2.60
2023-01-12T20:32:43.105Z,3.35
2023-01-12T20:37:48.068Z,3.63
2023-01-12T20:42:50.931Z,4.13
2023-01-12T20:47:53.607Z,3.90
2023-01-12T20:52:58.303Z,4.32
2023-01-12T20:58:00.538Z,3.97
2023-01-12T21:03:04.197Z,3.97
2023-01-12T21:08:08.678Z,4.18
2023-01-12T21:13:10.942Z,4.32
2023-01-12T21:18:13.586Z,6.00
2023-01-12T21:23:17.107Z,6.40
2023-01-12T21:28:19.709Z,6.45
2023-01-12T21:33:22.049Z,6.60
2023-01-12T21:38:26.168Z,6.72
2023-01-12T21:43:28.348Z,7.15
2023-01-12T21:48:32.249Z,8.10
2023-01-12T21:53:36.331Z,5.63
2023-01-12T21:58:39.479Z,6.45
2023-01-12T22:03:42.328Z,6.68
2023-01-12T22:08:45.939Z,6.70
2023-01-12T22:13:48.674Z,6.07
2023-01-12T22:18:52.439Z,4.82
2023-01-12T22:23:56.042Z,5.18
2023-01-12T22:28:58.191Z,4.45
2023-01-12T22:34:04.232Z,4.10
2023-01-12T22:39:07.749Z,3.70
2023-01-12T22:44:10.050Z,3.33
2023-01-12T22:49:12.540Z,3.95
2023-01-12T22:54:16.459Z,3.28
2023-01-12T22:59:21.761Z,4.10
2023-01-12T23:04:24.269Z,4.35
2023-01-12T23:09:30.762Z,4.28
2023-01-12T23:14:34.018Z,5.05
2023-01-12T23:19:36.242Z,5.03
2023-01-12T23:24:39.864Z,5.72
2023-01-12T23:29:42.753Z,7.75
2023-01-12T23:34:44.991Z,7.35
2023-01-12T23:39:48.626Z,3.45
2023-01-12T23:44:50.878Z,4.55
2023-01-12T23:49:53.160Z,2.85
2023-01-12T23:54:58.434Z,3.17
